sensor_id;sensor_type;location;lat;lon;timestamp;temperature;humidity
39019;DHT22;24786;51.984;5.872;2023-05-07T00:01:18;15.30;99.90
39019;DHT22;24786;51.984;5.872;2023-05-07T00:03:43;15.30;99.90
39019;DHT22;24786;51.984;5.872;2023-05-07T00:06:09;15.30;99.90
39019;DHT22;24786;51.984;5.872;2023-05-07T00:08:38;15.20;99.90
39019;DHT22;24786;51.984;5.872;2023-05-07T00:11:03;15.20;99.90
39019;DHT22;24786;51.984;5.872;2023-05-07T00:13:29;15.30;99.90
39019;DHT22;24786;51.984;5.872;2023-05-07T00:16:01;15.20;99.90
39019;DHT22;24786;51.984;5.872;2023-05-07T00:18:26;15.20;99.90
39019;DHT22;24786;51.984;5.872;2023-05-07T00:20:52;15.20;99.90
39019;DHT22;24786;51.984;5.872;2023-05-07T00:23:17;15.10;99.90
39019;DHT22;24786;51.984;5.872;2023-05-07T00:25:43;15.10;99.90
39019;DHT22;24786;51.984;5.872;2023-05-07T00:28:08;15.10;99.90
39019;DHT22;24786;51.984;5.872;2023-05-07T00:30:33;15.00;99.90
39019;DHT22;24786;51.984;5.872;2023-05-07T00:32:59;15.00;99.90
39019;DHT22;24786;51.984;5.872;2023-05-07T00:35:24;15.00;99.90
39019;DHT22;24786;51.984;5.872;2023-05-07T00:37:50;15.00;99.90
39019;DHT22;24786;51.984;5.872;2023-05-07T00:40:15;14.90;99.90
39019;DHT22;24786;51.984;5.872;2023-05-07T00:42:41;14.90;99.90
39019;DHT22;24786;51.984;5.872;2023-05-07T00:45:06;14.90;99.90
39019;DHT22;24786;51.984;5.872;2023-05-07T00:47:33;14.90;99.90
39019;DHT22;24786;51.984;5.872;2023-05-07T00:49:58;14.90;99.90
39019;DHT22;24786;51.984;5.872;2023-05-07T00:52:24;14.80;99.90
39019;DHT22;24786;51.984;5.872;2023-05-07T00:54:50;14.80;99.90
39019;DHT22;24786;51.984;5.872;2023-05-07T00:57:16;14.80;99.90
39019;DHT22;24786;51.984;5.872;2023-05-07T00:59:42;14.80;99.90
39019;DHT22;24786;51.984;5.872;2023-05-07T01:02:07;14.80;99.90
39019;DHT22;24786;51.984;5.872;2023-05-07T01:04:33;14.70;99.90
39019;DHT22;24786;51.984;5.872;2023-05-07T01:06:58;14.70;99.90
39019;DHT22;24786;51.984;5.872;2023-05-07T01:09:24;14.60;99.90
39019;DHT22;24786;51.984;5.872;2023-05-07T01:11:50;14.60;99.90
39019;DHT22;24786;51.984;5.872;2023-05-07T01:14:16;14.50;99.90
39019;DHT22;24786;51.984;5.872;2023-05-07T01:16:42;14.50;99.90
39019;DHT22;24786;51.984;5.872;2023-05-07T01:19:08;14.50;99.90
39019;DHT22;24786;51.984;5.872;2023-05-07T01:21:36;14.50;99.90
39019;DHT22;24786;51.984;5.872;2023-05-07T01:24:02;14.50;99.90
39019;DHT22;24786;51.984;5.872;2023-05-07T01:26:28;14.50;99.90
39019;DHT22;24786;51.984;5.872;2023-05-07T01:28:54;14.50;99.90
39019;DHT22;24786;51.984;5.872;2023-05-07T01:31:19;14.50;99.90
39019;DHT22;24786;51.984;5.872;2023-05-07T01:33:45;14.50;99.90
39019;DHT22;24786;51.984;5.872;2023-05-07T01:36:11;14.50;99.90
39019;DHT22;24786;51.984;5.872;2023-05-07T01:38:38;14.50;99.90
39019;DHT22;24786;51.984;5.872;2023-05-07T01:41:04;14.50;99.90
39019;DHT22;24786;51.984;5.872;2023-05-07T01:43:30;14.50;99.90
39019;DHT22;24786;51.984;5.872;2023-05-07T01:45:56;14.50;99.90
39019;DHT22;24786;51.984;5.872;2023-05-07T01:48:22;14.50;99.90
39019;DHT22;24786;51.984;5.872;2023-05-07T01:50:48;14.60;99.90
39019;DHT22;24786;51.984;5.872;2023-05-07T01:53:14;14.60;99.90
39019;DHT22;24786;51.984;5.872;2023-05-07T01:55:40;14.60;99.90
39019;DHT22;24786;51.984;5.872;2023-05-07T01:58:05;14.60;99.90
39019;DHT22;24786;51.984;5.872;2023-05-07T02:00:31;14.60;99.90
39019;DHT22;24786;51.984;5.872;2023-05-07T02:02:57;14.60;99.90
39019;DHT22;24786;51.984;5.872;2023-05-07T02:05:22;14.50;99.90
39019;DHT22;24786;51.984;5.872;2023-05-07T02:07:48;14.60;99.90
39019;DHT22;24786;51.984;5.872;2023-05-07T02:10:13;14.60;99.90
39019;DHT22;24786;51.984;5.872;2023-05-07T02:12:39;14.60;99.90
39019;DHT22;24786;51.984;5.872;2023-05-07T02:15:04;14.60;99.90
39019;DHT22;24786;51.984;5.872;2023-05-07T02:17:30;14.60;99.90
39019;DHT22;24786;51.984;5.872;2023-05-07T02:19:57;14.60;99.90
39019;DHT22;24786;51.984;5.872;2023-05-07T02:22:22;14.60;99.90
39019;DHT22;24786;51.984;5.872;2023-05-07T02:24:48;14.60;99.90
39019;DHT22;24786;51.984;5.872;2023-05-07T02:27:14;14.70;99.90
39019;DHT22;24786;51.984;5.872;2023-05-07T02:29:39;14.60;99.90
39019;DHT22;24786;51.984;5.872;2023-05-07T02:32:05;14.60;99.90
39019;DHT22;24786;51.984;5.872;2023-05-07T02:34:30;14.60;99.90
39019;DHT22;24786;51.984;5.872;2023-05-07T02:36:56;14.60;99.90
39019;DHT22;24786;51.984;5.872;2023-05-07T02:39:21;14.70;99.90
39019;DHT22;24786;51.984;5.872;2023-05-07T02:41:47;14.60;99.90
39019;DHT22;24786;51.984;5.872;2023-05-07T02:44:12;14.70;99.90
39019;DHT22;24786;51.984;5.872;2023-05-07T02:46:38;14.60;99.90
39019;DHT22;24786;51.984;5.872;2023-05-07T02:49:03;14.60;99.90
39019;DHT22;24786;51.984;5.872;2023-05-07T02:51:29;14.60;99.90
39019;DHT22;24786;51.984;5.872;2023-05-07T02:53:55;14.60;99.90
39019;DHT22;24786;51.984;5.872;2023-05-07T02:56:21;14.60;99.90
39019;DHT22;24786;51.984;5.872;2023-05-07T02:58:46;14.60;99.90
39019;DHT22;24786;51.984;5.872;2023-05-07T03:01:11;14.60;99.90
39019;DHT22;24786;51.984;5.872;2023-05-07T03:03:39;14.60;99.90
39019;DHT22;24786;51.984;5.872;2023-05-07T03:06:05;14.60;99.90
39019;DHT22;24786;51.984;5.872;2023-05-07T03:08:32;14.60;99.90
39019;DHT22;24786;51.984;5.872;2023-05-07T03:10:57;14.70;99.90
39019;DHT22;24786;51.984;5.872;2023-05-07T03:13:23;14.60;99.90
39019;DHT22;24786;51.984;5.872;2023-05-07T03:15:48;14.60;99.90
39019;DHT22;24786;51.984;5.872;2023-05-07T03:18:14;14.60;99.90
39019;DHT22;24786;51.984;5.872;2023-05-07T03:20:39;14.60;99.90
39019;DHT22;24786;51.984;5.872;2023-05-07T03:23:05;14.70;99.90
39019;DHT22;24786;51.984;5.872;2023-05-07T03:25:30;14.60;99.90
39019;DHT22;24786;51.984;5.872;2023-05-07T03:27:56;14.60;99.90
39019;DHT22;24786;51.984;5.872;2023-05-07T03:30:21;14.60;99.90
39019;DHT22;24786;51.984;5.872;2023-05-07T03:32:47;14.60;99.90
39019;DHT22;24786;51.984;5.872;2023-05-07T03:35:12;14.60;99.90
39019;DHT22;24786;51.984;5.872;2023-05-07T03:37:38;14.60;99.90
39019;DHT22;24786;51.984;5.872;2023-05-07T03:40:04;14.60;99.90
39019;DHT22;24786;51.984;5.872;2023-05-07T03:42:29;14.50;99.90
39019;DHT22;24786;51.984;5.872;2023-05-07T03:44:55;14.50;99.90
39019;DHT22;24786;51.984;5.872;2023-05-07T03:47:21;14.50;99.90
39019;DHT22;24786;51.984;5.872;2023-05-07T03:49:46;14.50;99.90
39019;DHT22;24786;51.984;5.872;2023-05-07T03:52:11;14.50;99.90
39019;DHT22;24786;51.984;5.872;2023-05-07T03:54:37;14.50;99.90
39019;DHT22;24786;51.984;5.872;2023-05-07T03:57:02;14.50;99.90
39019;DHT22;24786;51.984;5.872;2023-05-07T03:59:28;14.50;99.90
39019;DHT22;24786;51.984;5.872;2023-05-07T04:01:53;14.50;99.90
39019;DHT22;24786;51.984;5.872;2023-05-07T04:04:19;14.50;99.90
39019;DHT22;24786;51.984;5.872;2023-05-07T04:06:45;14.50;99.90
39019;DHT22;24786;51.984;5.872;2023-05-07T04:09:10;14.50;99.90
39019;DHT22;24786;51.984;5.872;2023-05-07T04:11:36;14.50;99.90
39019;DHT22;24786;51.984;5.872;2023-05-07T04:14:01;14.50;99.90
39019;DHT22;24786;51.984;5.872;2023-05-07T04:16:27;14.50;99.90
39019;DHT22;24786;51.984;5.872;2023-05-07T04:18:52;14.50;99.90
39019;DHT22;24786;51.984;5.872;2023-05-07T04:21:18;14.50;99.90
39019;DHT22;24786;51.984;5.872;2023-05-07T04:23:44;14.50;99.90
39019;DHT22;24786;51.984;5.872;2023-05-07T04:26:09;14.50;99.90
39019;DHT22;24786;51.984;5.872;2023-05-07T04:28:35;14.50;99.90
39019;DHT22;24786;51.984;5.872;2023-05-07T04:31:00;14.40;99.90
39019;DHT22;24786;51.984;5.872;2023-05-07T04:33:26;14.50;99.90
39019;DHT22;24786;51.984;5.872;2023-05-07T04:35:51;14.50;99.90
39019;DHT22;24786;51.984;5.872;2023-05-07T04:38:17;14.50;99.90
39019;DHT22;24786;51.984;5.872;2023-05-07T04:40:43;14.50;99.90
39019;DHT22;24786;51.984;5.872;2023-05-07T04:43:09;14.50;99.90
39019;DHT22;24786;51.984;5.872;2023-05-07T04:45:35;14.40;99.90
39019;DHT22;24786;51.984;5.872;2023-05-07T04:48:00;14.50;99.90
39019;DHT22;24786;51.984;5.872;2023-05-07T04:50:26;14.40;99.90
39019;DHT22;24786;51.984;5.872;2023-05-07T04:52:51;14.40;99.90
39019;DHT22;24786;51.984;5.872;2023-05-07T04:55:17;14.40;99.90
39019;DHT22;24786;51.984;5.872;2023-05-07T04:57:42;14.40;99.90
39019;DHT22;24786;51.984;5.872;2023-05-07T05:00:08;14.40;99.90
39019;DHT22;24786;51.984;5.872;2023-05-07T05:02:34;14.50;99.90
39019;DHT22;24786;51.984;5.872;2023-05-07T05:05:00;14.50;99.90
39019;DHT22;24786;51.984;5.872;2023-05-07T05:07:26;14.50;99.90
39019;DHT22;24786;51.984;5.872;2023-05-07T05:09:52;14.60;99.90
39019;DHT22;24786;51.984;5.872;2023-05-07T05:12:17;14.50;99.90
39019;DHT22;24786;51.984;5.872;2023-05-07T05:14:43;14.50;99.90
39019;DHT22;24786;51.984;5.872;2023-05-07T05:17:08;14.50;99.90
39019;DHT22;24786;51.984;5.872;2023-05-07T05:19:33;14.50;99.90
39019;DHT22;24786;51.984;5.872;2023-05-07T05:21:59;14.50;99.90
39019;DHT22;24786;51.984;5.872;2023-05-07T05:24:26;14.50;99.90
39019;DHT22;24786;51.984;5.872;2023-05-07T05:26:53;14.50;99.90
39019;DHT22;24786;51.984;5.872;2023-05-07T05:29:18;14.50;99.90
39019;DHT22;24786;51.984;5.872;2023-05-07T05:31:44;14.50;99.90
39019;DHT22;24786;51.984;5.872;2023-05-07T05:34:09;14.60;99.90
39019;DHT22;24786;51.984;5.872;2023-05-07T05:36:35;14.60;99.90
39019;DHT22;24786;51.984;5.872;2023-05-07T05:39:00;14.60;99.90
39019;DHT22;24786;51.984;5.872;2023-05-07T05:41:26;14.60;99.90
39019;DHT22;24786;51.984;5.872;2023-05-07T05:43:51;14.60;99.90
39019;DHT22;24786;51.984;5.872;2023-05-07T05:46:17;14.60;99.90
39019;DHT22;24786;51.984;5.872;2023-05-07T05:48:42;14.60;99.90
39019;DHT22;24786;51.984;5.872;2023-05-07T05:51:07;14.60;99.90
39019;DHT22;24786;51.984;5.872;2023-05-07T05:53:33;14.60;99.90
39019;DHT22;24786;51.984;5.872;2023-05-07T05:55:58;14.60;99.90
39019;DHT22;24786;51.984;5.872;2023-05-07T05:58:24;14.60;99.90
39019;DHT22;24786;51.984;5.872;2023-05-07T06:00:49;14.60;99.90
39019;DHT22;24786;51.984;5.872;2023-05-07T06:03:17;14.70;99.90
39019;DHT22;24786;51.984;5.872;2023-05-07T06:05:43;14.70;99.90
39019;DHT22;24786;51.984;5.872;2023-05-07T06:08:08;14.70;99.90
39019;DHT22;24786;51.984;5.872;2023-05-07T06:10:35;14.70;99.90
39019;DHT22;24786;51.984;5.872;2023-05-07T06:13:00;14.80;99.90
39019;DHT22;24786;51.984;5.872;2023-05-07T06:15:26;14.80;99.90
39019;DHT22;24786;51.984;5.872;2023-05-07T06:17:51;14.80;99.90
39019;DHT22;24786;51.984;5.872;2023-05-07T06:20:17;14.80;99.90
39019;DHT22;24786;51.984;5.872;2023-05-07T06:22:42;14.80;99.90
39019;DHT22;24786;51.984;5.872;2023-05-07T06:25:08;14.80;99.90
39019;DHT22;24786;51.984;5.872;2023-05-07T06:27:33;14.90;99.90
39019;DHT22;24786;51.984;5.872;2023-05-07T06:29:59;15.00;99.90
39019;DHT22;24786;51.984;5.872;2023-05-07T06:32:24;15.00;99.90
39019;DHT22;24786;51.984;5.872;2023-05-07T06:34:50;15.00;99.90
39019;DHT22;24786;51.984;5.872;2023-05-07T06:37:15;15.00;99.90
39019;DHT22;24786;51.984;5.872;2023-05-07T06:39:41;15.00;99.90
39019;DHT22;24786;51.984;5.872;2023-05-07T06:42:06;15.10;99.90
39019;DHT22;24786;51.984;5.872;2023-05-07T06:44:32;15.20;99.90
39019;DHT22;24786;51.984;5.872;2023-05-07T06:46:57;15.20;99.90
39019;DHT22;24786;51.984;5.872;2023-05-07T06:49:22;15.20;99.90
39019;DHT22;24786;51.984;5.872;2023-05-07T06:51:48;15.30;99.90
39019;DHT22;24786;51.984;5.872;2023-05-07T06:54:13;15.30;99.90
39019;DHT22;24786;51.984;5.872;2023-05-07T06:56:39;15.40;99.90
39019;DHT22;24786;51.984;5.872;2023-05-07T06:59:04;15.40;99.90
39019;DHT22;24786;51.984;5.872;2023-05-07T07:01:30;15.50;99.90
39019;DHT22;24786;51.984;5.872;2023-05-07T07:03:55;15.50;99.90
39019;DHT22;24786;51.984;5.872;2023-05-07T07:06:21;15.50;99.90
39019;DHT22;24786;51.984;5.872;2023-05-07T07:08:46;15.50;99.90
39019;DHT22;24786;51.984;5.872;2023-05-07T07:11:12;15.50;99.90
39019;DHT22;24786;51.984;5.872;2023-05-07T07:13:37;15.50;99.90
39019;DHT22;24786;51.984;5.872;2023-05-07T07:16:03;15.60;99.90
39019;DHT22;24786;51.984;5.872;2023-05-07T07:18:28;15.60;99.90
39019;DHT22;24786;51.984;5.872;2023-05-07T07:20:54;15.60;99.90
39019;DHT22;24786;51.984;5.872;2023-05-07T07:23:19;15.60;99.90
39019;DHT22;24786;51.984;5.872;2023-05-07T07:25:45;15.60;99.90
39019;DHT22;24786;51.984;5.872;2023-05-07T07:28:11;15.60;99.90
39019;DHT22;24786;51.984;5.872;2023-05-07T07:30:36;15.60;99.90
39019;DHT22;24786;51.984;5.872;2023-05-07T07:33:02;15.70;99.90
39019;DHT22;24786;51.984;5.872;2023-05-07T07:35:31;15.80;99.90
39019;DHT22;24786;51.984;5.872;2023-05-07T07:37:57;15.90;99.90
39019;DHT22;24786;51.984;5.872;2023-05-07T07:40:23;16.00;99.90
39019;DHT22;24786;51.984;5.872;2023-05-07T07:42:48;16.00;99.90
39019;DHT22;24786;51.984;5.872;2023-05-07T07:45:14;16.00;99.90
39019;DHT22;24786;51.984;5.872;2023-05-07T07:47:40;16.20;99.90
39019;DHT22;24786;51.984;5.872;2023-05-07T07:50:05;16.00;99.90
39019;DHT22;24786;51.984;5.872;2023-05-07T07:52:31;16.10;99.90
39019;DHT22;24786;51.984;5.872;2023-05-07T07:54:57;16.10;99.90
39019;DHT22;24786;51.984;5.872;2023-05-07T07:57:22;16.10;99.90
39019;DHT22;24786;51.984;5.872;2023-05-07T07:59:47;16.20;99.90
39019;DHT22;24786;51.984;5.872;2023-05-07T08:02:13;16.30;99.90
39019;DHT22;24786;51.984;5.872;2023-05-07T08:04:38;16.30;99.90
39019;DHT22;24786;51.984;5.872;2023-05-07T08:07:04;16.30;99.90
39019;DHT22;24786;51.984;5.872;2023-05-07T08:09:29;16.20;99.90
39019;DHT22;24786;51.984;5.872;2023-05-07T08:11:55;16.30;99.90
39019;DHT22;24786;51.984;5.872;2023-05-07T08:14:20;16.40;99.90
39019;DHT22;24786;51.984;5.872;2023-05-07T08:16:46;16.40;99.90
39019;DHT22;24786;51.984;5.872;2023-05-07T08:19:11;16.50;99.90
39019;DHT22;24786;51.984;5.872;2023-05-07T08:21:40;16.40;99.90
39019;DHT22;24786;51.984;5.872;2023-05-07T08:24:06;16.50;99.90
39019;DHT22;24786;51.984;5.872;2023-05-07T08:26:31;16.50;99.90
39019;DHT22;24786;51.984;5.872;2023-05-07T08:28:57;16.60;99.90
39019;DHT22;24786;51.984;5.872;2023-05-07T08:31:22;16.70;99.90
39019;DHT22;24786;51.984;5.872;2023-05-07T08:33:48;16.80;99.90
39019;DHT22;24786;51.984;5.872;2023-05-07T08:36:13;16.70;99.90
39019;DHT22;24786;51.984;5.872;2023-05-07T08:38:38;16.70;99.90
39019;DHT22;24786;51.984;5.872;2023-05-07T08:41:05;16.80;99.90
39019;DHT22;24786;51.984;5.872;2023-05-07T08:43:32;16.80;99.90
39019;DHT22;24786;51.984;5.872;2023-05-07T08:45:58;16.80;99.90
39019;DHT22;24786;51.984;5.872;2023-05-07T08:48:26;16.90;99.90
39019;DHT22;24786;51.984;5.872;2023-05-07T08:50:52;16.90;99.90
39019;DHT22;24786;51.984;5.872;2023-05-07T08:53:18;16.90;99.90
39019;DHT22;24786;51.984;5.872;2023-05-07T08:55:45;16.90;99.90
39019;DHT22;24786;51.984;5.872;2023-05-07T08:58:11;17.00;99.90
39019;DHT22;24786;51.984;5.872;2023-05-07T09:00:36;17.00;99.90
39019;DHT22;24786;51.984;5.872;2023-05-07T09:03:02;17.00;99.90
39019;DHT22;24786;51.984;5.872;2023-05-07T09:05:28;17.00;99.90
39019;DHT22;24786;51.984;5.872;2023-05-07T09:07:53;17.10;99.90
39019;DHT22;24786;51.984;5.872;2023-05-07T09:10:20;17.10;99.90
39019;DHT22;24786;51.984;5.872;2023-05-07T09:12:46;17.20;99.90
39019;DHT22;24786;51.984;5.872;2023-05-07T09:15:11;17.20;99.90
39019;DHT22;24786;51.984;5.872;2023-05-07T09:17:37;17.30;99.90
39019;DHT22;24786;51.984;5.872;2023-05-07T09:20:03;17.40;99.90
39019;DHT22;24786;51.984;5.872;2023-05-07T09:22:33;17.40;99.90
39019;DHT22;24786;51.984;5.872;2023-05-07T09:24:58;17.50;99.90
39019;DHT22;24786;51.984;5.872;2023-05-07T09:27:24;17.60;99.90
39019;DHT22;24786;51.984;5.872;2023-05-07T09:29:50;17.70;99.90
39019;DHT22;24786;51.984;5.872;2023-05-07T09:32:15;17.80;99.90
39019;DHT22;24786;51.984;5.872;2023-05-07T09:34:41;17.90;99.90
39019;DHT22;24786;51.984;5.872;2023-05-07T09:37:07;17.90;99.90
39019;DHT22;24786;51.984;5.872;2023-05-07T09:39:39;18.00;99.90
39019;DHT22;24786;51.984;5.872;2023-05-07T09:42:05;18.20;99.90
39019;DHT22;24786;51.984;5.872;2023-05-07T09:44:31;18.30;99.90
39019;DHT22;24786;51.984;5.872;2023-05-07T09:46:57;18.30;99.90
39019;DHT22;24786;51.984;5.872;2023-05-07T09:49:24;18.40;99.90
39019;DHT22;24786;51.984;5.872;2023-05-07T09:51:52;18.50;99.90
39019;DHT22;24786;51.984;5.872;2023-05-07T09:54:18;18.60;99.90
39019;DHT22;24786;51.984;5.872;2023-05-07T09:56:47;18.70;99.90
39019;DHT22;24786;51.984;5.872;2023-05-07T09:59:14;18.80;99.90
39019;DHT22;24786;51.984;5.872;2023-05-07T10:01:43;18.90;99.90
39019;DHT22;24786;51.984;5.872;2023-05-07T10:04:09;19.10;99.90
39019;DHT22;24786;51.984;5.872;2023-05-07T10:06:35;19.20;99.90
39019;DHT22;24786;51.984;5.872;2023-05-07T10:09:01;19.30;99.90
39019;DHT22;24786;51.984;5.872;2023-05-07T10:11:26;19.20;99.90
39019;DHT22;24786;51.984;5.872;2023-05-07T10:13:52;19.40;99.90
39019;DHT22;24786;51.984;5.872;2023-05-07T10:16:18;19.40;99.90
39019;DHT22;24786;51.984;5.872;2023-05-07T10:18:43;19.50;99.90
39019;DHT22;24786;51.984;5.872;2023-05-07T10:21:19;19.60;99.90
39019;DHT22;24786;51.984;5.872;2023-05-07T10:23:45;19.60;99.90
39019;DHT22;24786;51.984;5.872;2023-05-07T10:26:13;19.60;99.90
39019;DHT22;24786;51.984;5.872;2023-05-07T10:28:40;19.70;99.90
39019;DHT22;24786;51.984;5.872;2023-05-07T10:31:14;19.80;99.90
39019;DHT22;24786;51.984;5.872;2023-05-07T10:33:41;19.90;99.90
39019;DHT22;24786;51.984;5.872;2023-05-07T10:36:07;20.00;99.90
39019;DHT22;24786;51.984;5.872;2023-05-07T10:38:33;20.30;99.90
39019;DHT22;24786;51.984;5.872;2023-05-07T10:40:58;20.30;99.90
39019;DHT22;24786;51.984;5.872;2023-05-07T10:43:24;20.60;99.90
39019;DHT22;24786;51.984;5.872;2023-05-07T10:48:33;20.70;99.90
39019;DHT22;24786;51.984;5.872;2023-05-07T10:51:19;20.80;99.90
39019;DHT22;24786;51.984;5.872;2023-05-07T10:53:45;20.90;99.90
39019;DHT22;24786;51.984;5.872;2023-05-07T10:58:42;21.00;99.90
39019;DHT22;24786;51.984;5.872;2023-05-07T11:01:07;21.00;99.90
39019;DHT22;24786;51.984;5.872;2023-05-07T11:03:33;21.10;99.90
39019;DHT22;24786;51.984;5.872;2023-05-07T11:06:08;21.00;99.90
39019;DHT22;24786;51.984;5.872;2023-05-07T11:11:17;20.90;99.90
39019;DHT22;24786;51.984;5.872;2023-05-07T11:13:44;21.00;99.90
39019;DHT22;24786;51.984;5.872;2023-05-07T11:18:47;21.00;99.90
39019;DHT22;24786;51.984;5.872;2023-05-07T11:21:14;20.90;99.90
39019;DHT22;24786;51.984;5.872;2023-05-07T11:23:57;20.80;99.90
39019;DHT22;24786;51.984;5.872;2023-05-07T11:26:22;20.90;99.90
39019;DHT22;24786;51.984;5.872;2023-05-07T11:28:48;20.90;99.90
39019;DHT22;24786;51.984;5.872;2023-05-07T11:31:14;20.80;99.90
39019;DHT22;24786;51.984;5.872;2023-05-07T11:33:45;20.90;99.90
39019;DHT22;24786;51.984;5.872;2023-05-07T11:36:11;20.90;99.90
39019;DHT22;24786;51.984;5.872;2023-05-07T11:38:36;21.00;99.90
39019;DHT22;24786;51.984;5.872;2023-05-07T11:41:02;21.10;99.90
39019;DHT22;24786;51.984;5.872;2023-05-07T11:43:30;21.10;99.90
39019;DHT22;24786;51.984;5.872;2023-05-07T11:46:04;21.00;99.90
39019;DHT22;24786;51.984;5.872;2023-05-07T11:48:30;21.00;99.90
39019;DHT22;24786;51.984;5.872;2023-05-07T11:53:24;21.10;99.90
39019;DHT22;24786;51.984;5.872;2023-05-07T11:55:54;21.20;99.90
39019;DHT22;24786;51.984;5.872;2023-05-07T11:58:21;21.10;99.90
39019;DHT22;24786;51.984;5.872;2023-05-07T12:00:49;21.00;99.90
39019;DHT22;24786;51.984;5.872;2023-05-07T12:03:15;21.00;99.90
39019;DHT22;24786;51.984;5.872;2023-05-07T12:05:40;21.00;99.90
39019;DHT22;24786;51.984;5.872;2023-05-07T12:08:07;21.00;99.90
39019;DHT22;24786;51.984;5.872;2023-05-07T12:10:32;21.10;99.90
39019;DHT22;24786;51.984;5.872;2023-05-07T12:12:58;21.10;99.90
39019;DHT22;24786;51.984;5.872;2023-05-07T12:15:23;21.20;99.90
39019;DHT22;24786;51.984;5.872;2023-05-07T12:17:49;21.20;99.90
39019;DHT22;24786;51.984;5.872;2023-05-07T12:20:15;21.20;99.90
39019;DHT22;24786;51.984;5.872;2023-05-07T12:22:41;21.20;99.90
39019;DHT22;24786;51.984;5.872;2023-05-07T12:25:07;21.20;99.90
39019;DHT22;24786;51.984;5.872;2023-05-07T12:27:36;21.20;99.90
39019;DHT22;24786;51.984;5.872;2023-05-07T12:30:01;21.30;99.90
39019;DHT22;24786;51.984;5.872;2023-05-07T12:32:27;21.20;99.90
39019;DHT22;24786;51.984;5.872;2023-05-07T12:34:53;21.20;99.90
39019;DHT22;24786;51.984;5.872;2023-05-07T12:37:25;21.30;99.90
39019;DHT22;24786;51.984;5.872;2023-05-07T12:40:06;21.20;99.90
39019;DHT22;24786;51.984;5.872;2023-05-07T12:42:33;21.20;99.90
39019;DHT22;24786;51.984;5.872;2023-05-07T12:45:06;21.20;99.90
39019;DHT22;24786;51.984;5.872;2023-05-07T12:47:32;21.10;99.90
39019;DHT22;24786;51.984;5.872;2023-05-07T12:49:58;21.00;99.90
39019;DHT22;24786;51.984;5.872;2023-05-07T12:52:24;21.10;99.90
39019;DHT22;24786;51.984;5.872;2023-05-07T12:54:50;21.00;99.90
39019;DHT22;24786;51.984;5.872;2023-05-07T12:57:15;21.00;99.90
39019;DHT22;24786;51.984;5.872;2023-05-07T12:59:44;21.00;99.90
39019;DHT22;24786;51.984;5.872;2023-05-07T13:02:09;20.90;99.90
39019;DHT22;24786;51.984;5.872;2023-05-07T13:04:35;20.90;99.90
39019;DHT22;24786;51.984;5.872;2023-05-07T13:07:01;20.90;99.90
39019;DHT22;24786;51.984;5.872;2023-05-07T13:09:26;20.90;99.90
39019;DHT22;24786;51.984;5.872;2023-05-07T13:11:53;20.80;99.90
39019;DHT22;24786;51.984;5.872;2023-05-07T13:14:19;20.90;99.90
39019;DHT22;24786;51.984;5.872;2023-05-07T13:16:49;20.90;99.90
39019;DHT22;24786;51.984;5.872;2023-05-07T13:19:14;20.90;99.90
39019;DHT22;24786;51.984;5.872;2023-05-07T13:21:40;20.90;99.90
39019;DHT22;24786;51.984;5.872;2023-05-07T13:24:05;20.90;99.90
39019;DHT22;24786;51.984;5.872;2023-05-07T13:26:31;20.90;99.90
39019;DHT22;24786;51.984;5.872;2023-05-07T13:28:56;20.80;99.90
39019;DHT22;24786;51.984;5.872;2023-05-07T13:31:22;20.90;99.90
39019;DHT22;24786;51.984;5.872;2023-05-07T13:33:47;20.90;99.90
39019;DHT22;24786;51.984;5.872;2023-05-07T13:36:16;20.90;99.90
39019;DHT22;24786;51.984;5.872;2023-05-07T13:38:42;21.00;99.90
39019;DHT22;24786;51.984;5.872;2023-05-07T13:41:07;21.00;99.90
39019;DHT22;24786;51.984;5.872;2023-05-07T13:43:32;21.00;99.90
39019;DHT22;24786;51.984;5.872;2023-05-07T13:46:01;21.10;99.90
39019;DHT22;24786;51.984;5.872;2023-05-07T13:48:27;21.10;99.90
39019;DHT22;24786;51.984;5.872;2023-05-07T13:50:53;21.10;99.90
39019;DHT22;24786;51.984;5.872;2023-05-07T13:53:19;21.10;99.90
39019;DHT22;24786;51.984;5.872;2023-05-07T13:55:44;21.10;99.90
39019;DHT22;24786;51.984;5.872;2023-05-07T13:58:10;21.20;99.90
39019;DHT22;24786;51.984;5.872;2023-05-07T14:00:36;21.20;99.90
39019;DHT22;24786;51.984;5.872;2023-05-07T14:03:01;21.30;99.90
39019;DHT22;24786;51.984;5.872;2023-05-07T14:05:27;21.40;99.90
39019;DHT22;24786;51.984;5.872;2023-05-07T14:07:53;21.40;99.90
39019;DHT22;24786;51.984;5.872;2023-05-07T14:10:19;21.50;99.90
39019;DHT22;24786;51.984;5.872;2023-05-07T14:12:45;21.60;99.90
39019;DHT22;24786;51.984;5.872;2023-05-07T14:15:10;21.40;99.90
39019;DHT22;24786;51.984;5.872;2023-05-07T14:17:36;21.50;99.90
39019;DHT22;24786;51.984;5.872;2023-05-07T14:20:01;21.50;99.90
39019;DHT22;24786;51.984;5.872;2023-05-07T14:22:27;21.50;99.90
39019;DHT22;24786;51.984;5.872;2023-05-07T14:24:52;21.50;99.90
39019;DHT22;24786;51.984;5.872;2023-05-07T14:27:18;21.40;99.90
39019;DHT22;24786;51.984;5.872;2023-05-07T14:29:43;21.40;99.90
39019;DHT22;24786;51.984;5.872;2023-05-07T14:32:10;21.40;99.90
39019;DHT22;24786;51.984;5.872;2023-05-07T14:34:36;21.40;99.90
39019;DHT22;24786;51.984;5.872;2023-05-07T14:37:01;21.30;99.90
39019;DHT22;24786;51.984;5.872;2023-05-07T14:39:27;21.20;99.90
39019;DHT22;24786;51.984;5.872;2023-05-07T14:41:52;21.20;99.90
39019;DHT22;24786;51.984;5.872;2023-05-07T14:44:20;21.10;99.90
39019;DHT22;24786;51.984;5.872;2023-05-07T14:46:45;21.00;99.90
39019;DHT22;24786;51.984;5.872;2023-05-07T14:49:11;20.90;99.90
39019;DHT22;24786;51.984;5.872;2023-05-07T14:51:45;20.90;99.90
39019;DHT22;24786;51.984;5.872;2023-05-07T14:54:11;20.90;99.90
39019;DHT22;24786;51.984;5.872;2023-05-07T14:56:36;20.80;99.90
39019;DHT22;24786;51.984;5.872;2023-05-07T14:59:02;20.70;99.90
39019;DHT22;24786;51.984;5.872;2023-05-07T15:01:28;20.70;99.90
39019;DHT22;24786;51.984;5.872;2023-05-07T15:03:54;20.60;99.90
39019;DHT22;24786;51.984;5.872;2023-05-07T15:06:20;20.50;99.90
39019;DHT22;24786;51.984;5.872;2023-05-07T15:08:46;20.50;99.90
39019;DHT22;24786;51.984;5.872;2023-05-07T15:11:11;20.40;99.90
39019;DHT22;24786;51.984;5.872;2023-05-07T15:13:37;20.40;99.90
39019;DHT22;24786;51.984;5.872;2023-05-07T15:16:02;20.30;99.90
39019;DHT22;24786;51.984;5.872;2023-05-07T15:18:28;20.20;99.90
39019;DHT22;24786;51.984;5.872;2023-05-07T15:20:53;20.20;99.90
39019;DHT22;24786;51.984;5.872;2023-05-07T15:23:20;20.20;99.90
39019;DHT22;24786;51.984;5.872;2023-05-07T15:25:46;20.20;99.90
39019;DHT22;24786;51.984;5.872;2023-05-07T15:28:11;20.10;99.90
39019;DHT22;24786;51.984;5.872;2023-05-07T15:30:36;20.10;99.90
39019;DHT22;24786;51.984;5.872;2023-05-07T15:33:02;20.10;99.90
39019;DHT22;24786;51.984;5.872;2023-05-07T15:35:28;20.10;99.90